Terminal Aerodrome Forecast
Issued by NWS

Home | Current Version | Previous Version | Text Only | Print | Product List | Glossary On
Versions: 1 2 3 4 5 6 7 8 9 10 11 12 13
000
FTUS45 KRIW 191243 AAA
TAFBPI
TAF AMD
KBPI 191243Z 1913/2012 34014G20KT P6SM -RA SCT015 OVC030
     FM191400 31014G20KT 5SM -RASN SCT015 OVC025
     FM191800 30020G30KT P6SM VCSH SCT024 BKN040
     FM200000 31012KT P6SM SCT040 BKN070
     FM200600 31006KT P6SM SCT070=

USA.gov is the U.S. government's official web portal to all federal, state and local government web resources and services.